Flight Track Log - Related Links

Times and Time Zones

All times are in EDT time to prevent confusion due to time zone crossing. See the BOE8 flight status page for this flight to view local times or setup timezone preferences in your user account.

Time Position Orientation Groundspeed Altitude Reporting Facility
EDT Latitude Longitude Course Direction KTS MPH feet Rate Location/Type
Sun 12:57:46 PM 47.8690 -122.2903 360° North  Level FlightAware Approximate
Sun 12:59:02 PM 47.9214 -122.2897 360° North 120 138 1,400  Level Seattle Center
Sun 01:00:03 PM 47.9586 -122.2894 347° North 161 185 3,300 1,869 Climbing Seattle Center
Sun 01:01:04 PM 48.0175 -122.3092 284° West 181 208 5,200 1,475 Climbing Seattle Center
Sun 01:02:05 PM 48.0322 -122.3947 280° West 217 250 6,300 1,180 Climbing Seattle Center
Sun 01:03:06 PM 48.0425 -122.4792 283° West 216 249 7,600 1,426 Climbing Seattle Center
Sun 01:04:07 PM 48.0556 -122.5667 283° West 219 252 9,200 1,426 Climbing Seattle Center
Sun 01:05:08 PM 48.0669 -122.6422 284° West 199 229 10,500 1,180 Climbing Seattle Center
Sun 01:06:09 PM 48.0797 -122.7169 281° West 193 222 11,600 984 Climbing Seattle Center
Sun 01:07:10 PM 48.0903 -122.7978 282° West 197 227 12,500 934 Climbing Seattle Center
Sun 01:08:11 PM 48.1047 -122.8969 282° West 204 235 13,500 787 Climbing Seattle Center
Sun 01:09:12 PM 48.1186 -122.9917 272° West 235 270 14,100 295 Climbing Seattle Center
Sun 01:10:13 PM 48.1211 -123.0858 265° West 234 269 14,100  Level Seattle Center
Sun 01:11:14 PM 48.1156 -123.1778 265° West 226 260 14,100  Level Seattle Center
Sun 01:12:15 PM 48.1103 -123.2644 266° West 223 257 14,100  Level Seattle Center
Sun 01:13:16 PM 48.1058 -123.3553 287° West 220 253 14,100  Level Seattle Center
Sun 01:14:17 PM 48.1256 -123.4544 283° West 241 277 14,100 -49 Level Seattle Center
Sun 01:15:18 PM 48.1458 -123.5819 285° West 258 297 14,000  Descending Seattle Center
Sun 01:16:19 PM 48.1650 -123.6922 282° West 274 315 14,100 49 Climbing Seattle Center
Sun 01:17:20 PM 48.1819 -123.8089 283° West 282 325 14,100  Level Seattle Center
Sun 01:18:21 PM 48.2003 -123.9328 283° West 301 346 14,100 -49 Level Seattle Center
Sun 01:19:22 PM 48.2189 -124.0558 283° West 303 349 14,000 -49 Descending Seattle Center
Sun 01:20:23 PM 48.2369 -124.1753 283° West 299 344 14,000  Level Seattle Center
Sun 01:21:24 PM 48.2553 -124.2975 273° West 300 345 14,000  Level Seattle Center
Sun 01:22:25 PM 48.2597 -124.4194 219° Southwest 299 344 14,000  Level Seattle Center
Sun 01:23:26 PM 48.2008 -124.4906 155° Southeast 285 328 14,000  Level Seattle Center
Sun 01:24:27 PM 48.1372 -124.4456 102° East 270 311 14,000  Level Seattle Center
Sun 01:25:28 PM 48.1219 -124.3372 95° East 270 311 14,000  Level Seattle Center
Sun 01:26:29 PM 48.1158 -124.2253 95° East 271 312 14,000  Level Seattle Center
Sun 01:27:30 PM 48.1092 -124.1133 95° East 272 313 14,000 49 Level Seattle Center
Sun 01:28:31 PM 48.1017 -123.9800 95° East 271 312 14,100 49 Climbing Seattle Center
Sun 01:29:32 PM 48.0944 -123.8683 95° East 271 312 14,100 344 Level Seattle Center
Sun 01:30:33 PM 48.0878 -123.7575 95° East 270 311 14,800 934 Climbing Seattle Center
Sun 01:31:34 PM 48.0806 -123.6431 96° East 274 315 16,000 639 Climbing Seattle Center
Sun 01:32:35 PM 48.0722 -123.5256 96° East 282 325 16,100 49 Climbing Seattle Center
Sun 01:33:36 PM 48.0642 -123.4094 97° East 282 325 16,100 -49 Level Seattle Center
Sun 01:34:37 PM 48.0550 -123.2931 98° East 284 327 16,000 -49 Descending Seattle Center
Sun 01:35:38 PM 48.0442 -123.1733 95° East 284 327 16,000  Level Seattle Center
Sun 01:36:39 PM 48.0369 -123.0572 95° East 283 326 16,000  Level Seattle Center
Sun 01:37:40 PM 48.0294 -122.9383 96° East 287 330 16,000  Level Seattle Center
Sun 01:38:41 PM 48.0211 -122.8203 88° East 288 331 16,000  Level Seattle Center
Sun 01:39:42 PM 48.0236 -122.7031 32° Northeast 287 330 16,000  Level Seattle Center
Sun 01:40:43 PM 48.1033 -122.6297 North 306 352 16,000  Level Seattle Center
Sun 01:41:44 PM 48.1903 -122.6239 356° North 316 364 16,000  Level Seattle Center
Sun 01:42:44 PM 48.2764 -122.6322 358° North 315 362 16,000 50 Level Seattle Center
Sun 01:43:45 PM 48.3631 -122.6367 358° North 315 362 16,100 49 Climbing Seattle Center
Sun 01:44:46 PM 48.4500 -122.6406 338° Northwest 316 364 16,100 -246 Level Seattle Center
Sun 01:45:47 PM 48.5261 -122.6875 264° West 327 376 15,600 -1,082 Descending Seattle Center
Sun 01:46:48 PM 48.5175 -122.8019 193° South 296 341 13,900 -1,230 Descending Seattle Center
Sun 01:47:49 PM 48.4558 -122.8228 73° East 269 310 13,100 -393 Descending Seattle Center
Sun 01:48:50 PM 48.4742 -122.7336 24° Northeast 267 307 13,100  Level Seattle Center
Sun 01:49:50 PM 48.5597 -122.6772 24° Northeast 280 322 13,100  Level Seattle Center
Sun 01:50:51 PM 48.6311 -122.6297 24° Northeast 283 326 13,100 -49 Level Seattle Center
Sun 01:51:52 PM 48.7022 -122.5822 55° Northeast 283 326 13,000  Descending Seattle Center
Sun 01:52:53 PM 48.7442 -122.4925 91° East 273 314 13,100 49 Climbing Seattle Center
Sun 01:53:54 PM 48.7431 -122.3803 93° East 273 314 13,100  Level Seattle Center
Sun 01:54:54 PM 48.7392 -122.2708 100° East 265 305 13,100  Level Seattle Center
Sun 01:55:55 PM 48.7264 -122.1633 105° East 262 302 13,100  Level Seattle Center
Sun 01:56:56 PM 48.7075 -122.0583 107° East 260 299 13,100  Level Seattle Center
Sun 01:57:57 PM 48.6867 -121.9547 106° East 260 299 13,100  Level Seattle Center
Sun 01:58:58 PM 48.6617 -121.8269 107° East 264 304 13,100 -49 Level Seattle Center
Sun 01:59:59 PM 48.6397 -121.7211 125° Southeast 266 306 13,000  Descending Seattle Center
Sun 02:00:59 PM 48.5956 -121.6275 128° Southeast 281 323 13,100  Climbing Seattle Center
Sun 02:02:00 PM 48.5508 -121.5417 127° Southeast 268 308 13,000  Descending Seattle Center
Sun 02:03:01 PM 48.5064 -121.4536 129° Southeast 268 308 13,100 49 Climbing Seattle Center
Sun 02:04:02 PM 48.4606 -121.3683 130° Southeast 265 305 13,100  Level Seattle Center
Sun 02:05:03 PM 48.4125 -121.2831 129° Southeast 267 307 13,100 545 Level Seattle Center
Sun 02:06:03 PM 48.3658 -121.1969 130° Southeast 268 308 14,200 2,132 Climbing Seattle Center
Sun 02:07:04 PM 48.3175 -121.1097 128° Southeast 271 312 17,400 2,361 Climbing Seattle Center
Sun 02:08:05 PM 48.2689 -121.0161 127° Southeast 283 326 19,000 984 Climbing Seattle Center
Sun 02:09:06 PM 48.2117 -120.9003 129° Southeast 288 331 19,400  Climbing Seattle Center
Sun 02:10:07 PM 48.1625 -120.8097 130° Southeast 292 336 19,000 -393 Descending Seattle Center
Sun 02:11:08 PM 48.1086 -120.7136 130° Southeast 299 344 18,600 -836 Descending Seattle Center
Sun 02:12:09 PM 48.0558 -120.6186 130° Southeast 298 343 17,300 -639 Descending Seattle Center
Sun 02:13:10 PM 48.0036 -120.5272 130° Southeast 293 337 17,300  Level Seattle Center
Sun 02:14:11 PM 47.9522 -120.4358 129° Southeast 290 334 17,300  Level Seattle Center
Sun 02:15:12 PM 47.9028 -120.3456 129° Southeast 285 328 17,300  Level Seattle Center
Sun 02:16:13 PM 47.8539 -120.2564 129° Southeast 280 322 17,300  Level Seattle Center
Sun 02:17:14 PM 47.8058 -120.1669 130° Southeast 278 320 17,300  Level Seattle Center
Sun 02:18:15 PM 47.7450 -120.0586 130° Southeast 281 323 17,300  Level Seattle Center
Sun 02:19:16 PM 47.6939 -119.9683 130° Southeast 284 327 17,300 -98 Level Seattle Center
Sun 02:20:17 PM 47.6431 -119.8794 129° Southeast 283 326 17,100 -787 Descending Seattle Center
Sun 02:21:18 PM 47.5956 -119.7931 129° Southeast 274 315 15,700 -1,033 Descending Seattle Center
Sun 02:22:19 PM 47.5508 -119.7117 129° Southeast 264 304 15,000 -344 Descending Seattle Center
Sun 02:23:20 PM 47.5050 -119.6283 131° Southeast 264 304 15,000  Level Seattle Center
Sun 02:24:21 PM 47.4561 -119.5450 129° Southeast 269 310 15,000  Level Seattle Center
Sun 02:25:22 PM 47.4119 -119.4650 130° Southeast 259 298 15,000  Level Seattle Center
Sun 02:26:23 PM 47.3633 -119.3803 130° Southeast 270 311 15,000  Level Seattle Center
Sun 02:27:24 PM 47.3172 -119.2981 131° Southeast 263 303 15,000  Level Seattle Center
Sun 02:28:25 PM 47.2667 -119.2128 148° Southeast 276 318 15,000  Level Seattle Center
Sun 02:29:26 PM 47.1950 -119.1467 217° Southwest 262 302 15,000  Level Seattle Center
Sun 02:30:27 PM 47.1378 -119.2108 274° West 287 330 15,000  Level Seattle Center
Sun 02:31:28 PM 47.1442 -119.3339 325° Northwest 325 374 15,000  Level Seattle Center
Sun 02:32:29 PM 47.2156 -119.4075 341° North 324 373 15,000  Level Seattle Center
Sun 02:33:31 PM 47.3006 -119.4503 342° North 320 368 15,000  Level Seattle Center
Sun 02:34:32 PM 47.3894 -119.4942 342° North 332 382 15,000  Level Seattle Center
Sun 02:35:33 PM 47.4797 -119.5386 343° North 340 391 15,000 -295 Level Seattle Center
Sun 02:36:34 PM 47.5600 -119.5750 359° North 292 336 14,400 -984 Descending Seattle Center
Sun 02:37:35 PM 47.6425 -119.5761 46° Northeast 299 344 13,000 -1,328 Descending Seattle Center
Sun 02:38:36 PM 47.6944 -119.4956 73° East 269 310 11,700 -976 Descending Seattle Center
Sun 02:39:38 PM 47.7139 -119.3983 71° East 239 275 11,000 -341 Descending Seattle Center
Sun 02:40:39 PM 47.7406 -119.2797 14° North 255 293 11,000  Level Seattle Center
Sun 02:41:40 PM 47.8119 -119.2542 313° West 279 321 11,000  Level Seattle Center
Sun 02:42:41 PM 47.8628 -119.3353 266° West 280 322 11,000  Level Seattle Center
Sun 02:43:42 PM 47.8578 -119.4506 225° Southwest 289 333 11,000  Level Seattle Center
Sun 02:44:44 PM 47.8061 -119.5267 182° South 272 313 11,000 49 Level Seattle Center
Sun 02:45:45 PM 47.7414 -119.5306 130° Southeast 228 262 11,100 49 Climbing Seattle Center
Sun 02:46:46 PM 47.7097 -119.4753 67° East 174 200 11,100 -49 Level Seattle Center
Sun 02:47:47 PM 47.7267 -119.4147 36° Northeast 166 191 11,000 -439 Descending Seattle Center
Sun 02:48:49 PM 47.7633 -119.3753 39° Northeast 161 185 10,200 195 Descending Seattle Center
Sun 02:49:50 PM 47.7964 -119.3350 31° Northeast 157 181 11,400 98 Climbing Seattle Center
Sun 02:50:51 PM 47.8417 -119.2944 North 153 176 10,400 -148 Descending Seattle Center
Sun 02:51:52 PM 47.8808 -119.2928 270° West 166 191 11,100 -293 Climbing Seattle Center
Sun 02:52:54 PM 47.8806 -119.3600 168° South 188 216 9,800 -244 Descending Seattle Center
Sun 02:53:55 PM 47.8431 -119.3478 163° South 142 163 10,600 590 Climbing Seattle Center
Sun 02:54:56 PM 47.8017 -119.3286 159° South 153 176 11,000 197 Climbing Seattle Center
Sun 02:55:57 PM 47.7606 -119.3050 159° South 160 184 11,000 49 Level Seattle Center
Sun 02:56:59 PM 47.7178 -119.2806 118° Southeast 164 189 11,100 98 Climbing Seattle Center
Sun 02:58:00 PM 47.6983 -119.2264 347° North 177 204 11,200  Climbing Seattle Center
Sun 02:59:01 PM 47.7444 -119.2419 314° West 216 249 11,100 -98 Descending Seattle Center
Sun 03:00:02 PM 47.7886 -119.3108 304° West 191 220 11,000 -295 Descending Seattle Center
Sun 03:01:03 PM 47.8183 -119.3775 301° West 192 221 10,500 -244 Descending Seattle Center
Sun 03:02:05 PM 47.8456 -119.4458 297° West 192 221 10,500 -146 Level Seattle Center
Sun 03:03:06 PM 47.8700 -119.5161 292° West 191 220 10,200 148 Descending Seattle Center
Sun 03:04:07 PM 47.8897 -119.5894 294° West 190 219 10,800 443 Climbing Seattle Center
Sun 03:05:08 PM 47.9106 -119.6597 315° West 187 215 11,100 341 Climbing Seattle Center
Sun 03:06:10 PM 47.9483 -119.7153 288° West 193 222 11,500 195 Climbing Seattle Center
Sun 03:07:11 PM 47.9611 -119.7756 146° Southeast 203 234 11,500 -49 Level Seattle Center
Sun 03:08:12 PM 47.9294 -119.7433 110° East 168 193 11,400 -393 Descending Seattle Center
Sun 03:09:13 PM 47.9147 -119.6836 102° East 153 176 10,700 -146 Descending Seattle Center
Sun 03:10:15 PM 47.9056 -119.6178 92° East 135 155 11,100 780 Climbing Seattle Center
Sun 03:11:16 PM 47.9044 -119.5572 91° East 142 163 12,300 541 Climbing Seattle Center
Sun 03:12:17 PM 47.9036 -119.4883 84° East 166 191 12,200 -590 Descending Seattle Center
Sun 03:13:18 PM 47.9086 -119.4197 316° Northwest 168 193 11,100 -537 Descending Seattle Center
Sun 03:14:20 PM 47.9383 -119.4625 289° West 189 217 11,100 293 Level Seattle Center
Sun 03:15:21 PM 47.9564 -119.5419 284° West 204 235 11,700 -49 Climbing Seattle Center
Sun 03:16:22 PM 47.9700 -119.6233 274° West 203 234 11,000 -443 Descending Seattle Center
Sun 03:17:23 PM 47.9742 -119.7103 277° West 207 238 10,800 -492 Descending Seattle Center
Sun 03:18:24 PM 47.9817 -119.7978 226° Southwest 215 247 10,000 293 Descending Seattle Center
Sun 03:19:26 PM 47.9525 -119.8436 118° Southeast 195 224 11,400 927 Climbing Seattle Center
Sun 03:20:27 PM 47.9278 -119.7736 111° Southeast 162 186 11,900 197 Climbing Seattle Center
Sun 03:21:28 PM 47.9125 -119.7131 76° East 157 181 11,800 -98 Descending Seattle Center
Sun 03:22:29 PM 47.9239 -119.6469 63° Northeast 163 188 11,700 -49 Descending Seattle Center
Sun 03:23:31 PM 47.9456 -119.5844 88° East 168 193 11,700  Level Seattle Center
Sun 03:24:32 PM 47.9478 -119.4919 95° East 218 251 11,700  Level Seattle Center
Sun 03:25:33 PM 47.9431 -119.4047 95° East 217 250 11,700  Level Seattle Center
Sun 03:26:34 PM 47.9378 -119.3131 130° Southeast 220 253 11,700  Level Seattle Center
Sun 03:27:36 PM 47.9042 -119.2525 232° Southwest 219 252 11,700  Level Seattle Center
Sun 03:28:37 PM 47.8686 -119.3211 268° West 237 273 11,700 -49 Level Seattle Center
Sun 03:29:38 PM 47.8656 -119.4275 310° West 258 297 11,600 -148 Descending Seattle Center
Sun 03:30:39 PM 47.9203 -119.5250 314° West 261 300 11,400 -98 Descending Seattle Center
Sun 03:31:41 PM 47.9697 -119.6011 313° West 257 296 11,400  Level Seattle Center
Sun 03:32:42 PM 48.0181 -119.6789 264° West 257 296 11,400 -49 Level Seattle Center
Sun 03:33:43 PM 48.0114 -119.7783 198° South 260 299 11,300 -98 Descending Seattle Center
Sun 03:34:44 PM 47.9600 -119.8036 83° East 243 280 11,200 -49 Descending Seattle Center
Sun 03:35:45 PM 47.9672 -119.7194 77° East 210 242 11,200 -390 Level Seattle Center
Sun 03:36:47 PM 47.9778 -119.6483 76° East 185 213 10,400 -195 Descending Seattle Center
Sun 03:37:48 PM 47.9878 -119.5894 32° Northeast 150 173 10,800 541 Climbing Seattle Center
Sun 03:38:49 PM 48.0281 -119.5525 341° North 198 228 11,500 -197 Climbing Seattle Center
Sun 03:39:50 PM 48.0742 -119.5758 212° Southwest 203 234 10,400 -390 Descending Seattle Center
Sun 03:40:52 PM 48.0253 -119.6208 152° Southeast 185 213 10,700 390 Climbing Seattle Center
Sun 03:41:53 PM 47.9803 -119.5850 81° East 226 260 11,200 98 Climbing Seattle Center
Sun 03:42:54 PM 47.9889 -119.5003 59° Northeast 216 249 10,900 -295 Descending Seattle Center
Sun 03:43:55 PM 48.0194 -119.4236 332° Northwest 210 242 10,600 393 Descending Seattle Center
Sun 03:44:56 PM 48.0697 -119.4639 258° West 255 293 11,700 439 Climbing Seattle Center
Sun 03:45:58 PM 48.0553 -119.5653 212° Southwest 255 293 11,500 -439 Descending Seattle Center
Sun 03:46:59 PM 48.0083 -119.6094 100° East 236 272 10,800 -246 Descending Seattle Center
Sun 03:48:00 PM 47.9986 -119.5278 63° Northeast 208 239 11,000  Climbing Seattle Center
Sun 03:49:01 PM 48.0297 -119.4356 56° Northeast 248 285 10,800 -146 Descending Seattle Center
Sun 03:50:03 PM 48.0761 -119.3306 344° North 258 297 10,700 98 Descending Seattle Center
Sun 03:51:04 PM 48.1339 -119.3558 293° West 284 327 11,000 -246 Climbing Seattle Center
Sun 03:52:05 PM 48.1642 -119.4642 288° West 282 325 10,200 -148 Descending Seattle Center
Sun 03:53:06 PM 48.1886 -119.5756 225° Southwest 283 326 10,700 393 Climbing Seattle Center
Sun 03:54:07 PM 48.1378 -119.6508 216° Southwest 270 311 11,000 148 Climbing Seattle Center
Sun 03:55:08 PM 48.0869 -119.7067 209° Southwest 247 284 11,000 -146 Level Seattle Center
Sun 03:56:10 PM 48.0306 -119.7525 203° Southwest 232 267 10,700 -341 Descending Seattle Center
Sun 03:57:11 PM 47.9778 -119.7861 132° Southeast 230 265 10,300 -689 Descending Seattle Center
Sun 03:58:12 PM 47.9378 -119.7194 134° Southeast 222 255 9,300 -1,131 Descending Seattle Center
Sun 03:59:13 PM 47.8928 -119.6492 133° Southeast 237 273 8,000 -1,131 Descending Seattle Center
Sun 04:00:14 PM 47.8403 -119.5650 133° Southeast 228 262 7,000 -443 Descending Seattle Center
Sun 04:01:15 PM 47.7983 -119.4975 70° East 224 258 7,100 148 Climbing Seattle Center
Sun 04:02:16 PM 47.8172 -119.4192 50° Northeast 243 280 7,300 98 Climbing Seattle Center
Sun 04:03:18 PM 47.8594 -119.3442 49° Northeast 238 274 7,300  Level Seattle Center
Sun 04:04:19 PM 47.9011 -119.2719 65° Northeast 234 269 7,300 246 Level Seattle Center
Sun 04:05:20 PM 47.9278 -119.1872 144° Southeast 228 262 7,800 295 Climbing Seattle Center
Sun 04:06:21 PM 47.8822 -119.1386 232° Southwest 230 265 7,900 -148 Climbing Seattle Center
Sun 04:07:22 PM 47.8411 -119.2167 253° West 262 302 7,500 -197 Descending Seattle Center
Sun 04:08:23 PM 47.8200 -119.3186 252° West 259 298 7,500  Level Seattle Center
Sun 04:09:24 PM 47.7978 -119.4203 252° West 260 299 7,500  Level Seattle Center
Sun 04:10:25 PM 47.7747 -119.5228 252° West 260 299 7,500 -344 Level Seattle Center
Sun 04:11:26 PM 47.7478 -119.6456 252° West 262 302 6,800 -492 Descending Seattle Center
Sun 04:12:27 PM 47.7244 -119.7492 252° West 264 304 6,500 -148 Descending Seattle Center
Sun 04:13:28 PM 47.7017 -119.8517 269° West 264 304 6,500 49 Level Seattle Center
Sun 04:14:29 PM 47.7008 -119.9569 12° North 275 316 6,600 443 Climbing Seattle Center
Sun 04:15:30 PM 47.7622 -119.9381 48° Northeast 254 292 7,400 732 Climbing Seattle Center
Sun 04:16:32 PM 47.8061 -119.8658 58° Northeast 242 278 8,100 2,000 Climbing Seattle Center
Sun 04:17:33 PM 47.8397 -119.7850 90° East 242 278 11,500 3,393 Climbing Seattle Center
Sun 04:18:34 PM 47.8400 -119.6828 82° East 251 289 15,000 2,705 Climbing Seattle Center
Sun 04:19:35 PM 47.8503 -119.5675 82° East 276 318 17,000 1,721 Climbing Seattle Center
Sun 04:20:36 PM 47.8614 -119.4500 84° East 284 327 18,500 984 Climbing Seattle Center
Sun 04:21:37 PM 47.8708 -119.3206 100° East 309 356 19,000 246 Climbing Seattle Center
Sun 04:22:38 PM 47.8539 -119.1803 161° South 290 334 19,000  Level Seattle Center
Sun 04:23:40 PM 47.7828 -119.1439 221° Southwest 285 328 19,000  Level Seattle Center
Sun 04:24:41 PM 47.7211 -119.2222 273° West 303 349 19,000  Level Seattle Center
Sun 04:25:42 PM 47.7256 -119.3489 298° West 325 374 19,000  Level Seattle Center
Sun 04:26:43 PM 47.7686 -119.4703 298° West 333 383 19,000  Level Seattle Center
Sun 04:27:44 PM 47.8122 -119.5911 298° West 333 383 19,000  Level Seattle Center
Sun 04:28:46 PM 47.8542 -119.7100 299° West 329 379 19,000  Level Seattle Center
Sun 04:29:47 PM 47.8983 -119.8294 299° West 330 380 19,000  Level Seattle Center
Sun 04:30:48 PM 47.9425 -119.9497 299° West 331 381 19,000  Level Seattle Center
Sun 04:31:49 PM 47.9867 -120.0706 297° West 332 382 19,000  Level Seattle Center
Sun 04:32:51 PM 48.0353 -120.2106 297° West 320 368 19,000  Level Seattle Center
Sun 04:33:52 PM 48.0750 -120.3272 298° West 316 364 19,000  Level Seattle Center
Sun 04:34:53 PM 48.1153 -120.4422 298° West 314 361 19,000  Level Seattle Center
Sun 04:35:54 PM 48.1572 -120.5586 297° West 317 365 19,000  Level Seattle Center
Sun 04:36:55 PM 48.1964 -120.6731 297° West 313 360 19,000  Level Seattle Center
Sun 04:37:57 PM 48.2347 -120.7878 297° West 310 357 19,000  Level Seattle Center
Sun 04:38:58 PM 48.2744 -120.9067 298° West 303 349 19,000  Level Seattle Center
Sun 04:39:59 PM 48.3142 -121.0181 297° West 305 351 19,000  Level Seattle Center
Sun 04:41:00 PM 48.3547 -121.1378 297° West 319 367 19,000  Level Seattle Center
Sun 04:42:02 PM 48.3939 -121.2556 298° West 319 367 19,000  Level Seattle Center
Sun 04:43:03 PM 48.4333 -121.3689 297° West 313 360 19,000  Level Seattle Center
Sun 04:44:04 PM 48.4794 -121.5042 304° West 308 354 19,000  Level Seattle Center
Sun 04:45:05 PM 48.5269 -121.6103 311° West 310 357 19,000  Level Seattle Center
Sun 04:46:07 PM 48.5847 -121.7117 267° West 321 369 19,000  Level Seattle Center
Sun 04:47:08 PM 48.5808 -121.8333 208° Southwest 307 353 19,000  Level Seattle Center
Sun 04:48:09 PM 48.5161 -121.8844 143° Southeast 277 319 19,000  Level Seattle Center
Sun 04:49:10 PM 48.4600 -121.8208 79° East 273 314 19,000 -341 Level Seattle Center
Sun 04:50:12 PM 48.4742 -121.7083 18° North 291 335 18,300 -1,463 Descending Seattle Center
Sun 04:51:13 PM 48.5633 -121.6633 322° Northwest 308 354 16,000 -2,115 Descending Seattle Center
Sun 04:52:14 PM 48.6258 -121.7369 308° West 295 339 14,000 -1,475 Descending Seattle Center
Sun 04:53:15 PM 48.6736 -121.8311 308° West 287 330 13,000 -488 Descending Seattle Center
Sun 04:54:17 PM 48.7219 -121.9244 272° West 285 328 13,000  Level Seattle Center
Sun 04:55:18 PM 48.7242 -122.0342 250° West 274 315 13,000  Level Seattle Center
Sun 04:56:19 PM 48.6983 -122.1442 250° West 278 320 13,000  Level Seattle Center
Sun 04:57:20 PM 48.6678 -122.2728 251° West 276 318 13,000  Level Seattle Center
Sun 04:58:21 PM 48.6450 -122.3706 251° West 254 292 13,000  Level Seattle Center
Sun 04:59:23 PM 48.6242 -122.4594 212° Southwest 232 267 13,000  Level Seattle Center
Sun 05:00:25 PM 48.5733 -122.5072 203° Southwest 230 265 13,000  Level Seattle Center
Sun 05:01:26 PM 48.5053 -122.5511 202° Southwest 251 289 13,000  Level Seattle Center
Sun 05:02:27 PM 48.4342 -122.5944 202° Southwest 269 310 13,000  Level Seattle Center
Sun 05:03:28 PM 48.3481 -122.6469 202° Southwest 280 322 13,000 -49 Level Seattle Center
Sun 05:04:29 PM 48.2772 -122.6889 201° Southwest 278 320 12,900 -49 Descending Seattle Center
Sun 05:05:30 PM 48.2069 -122.7300 202° Southwest 276 318 12,900  Level Seattle Center
Sun 05:06:32 PM 48.1333 -122.7744 202° Southwest 286 329 12,900 -293 Level Seattle Center
Sun 05:07:33 PM 48.0572 -122.8211 167° South 294 338 12,300 -787 Descending Seattle Center
Sun 05:08:34 PM 47.9861 -122.7964 150° Southeast 282 325 11,300 -984 Descending Seattle Center
Sun 05:09:35 PM 47.9247 -122.7444 148° Southeast 263 303 10,300 -639 Descending Seattle Center
Sun 05:10:36 PM 47.8542 -122.6792 149° Southeast 254 292 10,000 -295 Descending Seattle Center
Sun 05:14:46 PM 47.7838 -122.6160 149° Southeast  Level FlightAware Approximate
Sun 05:19:46 PM 47.7134 -122.5530 150° Southeast  Level FlightAware Approximate
Sun 05:24:46 PM 47.6423 -122.4923 137° Southeast  Level FlightAware Approximate
Sun 05:29:46 PM 47.5826 -122.4099 126° Southeast  Level FlightAware Approximate
Sun 05:34:46 PM 47.5345 -122.3112 126° Southeast  Level Estimated

Login

Don't have an account? Register now (free) for customized features, flight alerts, and more!